Time;durP1;ratioP1;P1;durP2;ratioP2;P2;SDS_P1;SDS_P2;PMS_P1;PMS_P2;Temp;Humidity;BMP_temperature;BMP_pressure;BME280_temperature;BME280_humidity;BME280_pressure;Samples;Min_cycle;Max_cycle;Signal;HPM_P1;HPM_P2
2023/05/09 00:00:47;;;;;;;0.50;0.40;;;15.90;99.90;;;;;;4993941;28;20955;-77
2023/05/09 00:03:14;;;;;;;0.50;0.50;;;15.90;99.90;;;;;;4994038;28;20535;-78
2023/05/09 00:05:41;;;;;;;0.50;0.30;;;15.90;99.90;;;;;;4993894;28;20567;-77
2023/05/09 00:08:08;;;;;;;0.50;0.30;;;15.90;99.90;;;;;;4993999;28;20470;-77
2023/05/09 00:10:35;;;;;;;1.37;1.00;;;15.90;99.90;;;;;;4993765;28;20473;-77
2023/05/09 00:13:03;;;;;;;0.50;0.40;;;15.90;99.90;;;;;;4993884;28;20450;-77
2023/05/09 00:15:30;;;;;;;3.03;2.87;;;15.80;99.90;;;;;;4993424;28;20458;-77
2023/05/09 00:17:58;;;;;;;9.43;4.20;;;15.80;99.90;;;;;;4993926;28;20455;-77
2023/05/09 00:20:25;;;;;;;0.50;0.30;;;15.80;99.90;;;;;;4992885;28;20452;-76
2023/05/09 00:22:52;;;;;;;0.50;0.30;;;15.70;99.90;;;;;;4993759;28;20542;-77
2023/05/09 00:25:18;;;;;;;0.50;0.30;;;15.70;99.90;;;;;;4993170;28;20475;-77
2023/05/09 00:27:45;;;;;;;0.50;0.40;;;15.70;99.90;;;;;;4993375;28;20472;-77
2023/05/09 00:30:14;;;;;;;0.63;0.63;;;15.60;99.90;;;;;;4993461;28;20962;-77
2023/05/09 00:32:41;;;;;;;0.70;0.70;;;15.60;99.90;;;;;;4985973;28;20527;-77
2023/05/09 00:35:08;;;;;;;0.50;0.40;;;15.70;99.90;;;;;;4993674;28;20785;-77
2023/05/09 00:37:35;;;;;;;0.50;0.40;;;15.70;99.90;;;;;;4993065;28;20560;-77
2023/05/09 00:40:03;;;;;;;0.50;0.40;;;15.60;99.90;;;;;;4993311;28;20444;-77
2023/05/09 00:42:30;;;;;;;0.50;0.40;;;15.50;99.90;;;;;;4992639;28;20538;-77
2023/05/09 00:44:56;;;;;;;0.50;0.40;;;15.50;99.90;;;;;;4993261;28;20490;-77
2023/05/09 00:47:25;;;;;;;0.80;0.73;;;15.50;99.90;;;;;;4992785;28;20916;-78
2023/05/09 00:49:52;;;;;;;0.50;0.40;;;15.50;99.90;;;;;;4992871;28;20450;-77
2023/05/09 00:52:22;;;;;;;1.20;1.10;;;15.50;99.90;;;;;;4992567;28;20535;-77
2023/05/09 00:54:49;;;;;;;0.50;0.30;;;15.40;99.90;;;;;;4993115;28;20439;-77
2023/05/09 00:57:17;;;;;;;0.50;0.40;;;15.40;99.90;;;;;;4992713;28;20460;-77
2023/05/09 00:59:44;;;;;;;0.60;0.60;;;15.40;99.90;;;;;;4993047;28;20530;-77
2023/05/09 01:02:11;;;;;;;0.60;0.60;;;15.30;99.90;;;;;;4992834;28;20447;-77
2023/05/09 01:04:40;;;;;;;0.50;0.40;;;15.30;99.90;;;;;;4992637;28;20818;-77
2023/05/09 01:07:13;;;;;;;0.50;0.40;;;15.30;99.90;;;;;;4992605;28;21051;-77
2023/05/09 01:09:46;;;;;;;0.50;0.40;;;15.30;99.90;;;;;;4992606;28;20450;-77
2023/05/09 01:12:21;;;;;;;0.50;0.30;;;15.30;99.90;;;;;;4992666;28;20895;-77
2023/05/09 01:14:57;;;;;;;0.50;0.40;;;15.30;99.90;;;;;;4985514;28;20443;-77
2023/05/09 01:17:31;;;;;;;0.50;0.40;;;15.30;99.90;;;;;;4992465;28;20463;-77
2023/05/09 01:20:09;;;;;;;0.50;0.40;;;15.30;99.90;;;;;;4993001;28;20542;-77
2023/05/09 01:22:39;;;;;;;2.77;2.53;;;15.30;99.90;;;;;;4992835;28;20539;-77
2023/05/09 01:25:43;;;;;;;0.80;0.70;;;15.30;99.90;;;;;;4992465;28;20483;-77
2023/05/09 01:28:16;;;;;;;0.50;0.40;;;15.30;99.90;;;;;;4988311;28;20443;-77
2023/05/09 01:30:46;;;;;;;0.57;0.57;;;15.20;99.90;;;;;;4984441;28;20531;-77
2023/05/09 01:33:17;;;;;;;0.50;0.40;;;15.20;99.90;;;;;;4991968;28;20522;-77
2023/05/09 01:35:48;;;;;;;0.50;0.40;;;15.20;99.90;;;;;;4984618;28;20811;-77
2023/05/09 01:38:19;;;;;;;0.50;0.40;;;15.20;99.90;;;;;;4992194;28;20448;-77
2023/05/09 01:40:51;;;;;;;0.50;0.40;;;15.20;99.90;;;;;;4991940;28;20439;-77
2023/05/09 01:43:19;;;;;;;0.50;0.40;;;15.20;99.90;;;;;;4992511;28;20959;-77
2023/05/09 01:45:48;;;;;;;1.10;1.00;;;15.20;99.90;;;;;;4984295;28;20563;-77
2023/05/09 01:48:16;;;;;;;0.60;0.50;;;15.20;99.90;;;;;;5058953;22;20489;-80
2023/05/09 01:50:44;;;;;;;0.77;0.50;;;15.20;99.90;;;;;;5023604;28;20449;-79
2023/05/09 01:53:12;;;;;;;0.50;0.43;;;15.20;99.90;;;;;;5032126;28;20446;-80
2023/05/09 01:55:40;;;;;;;0.50;0.40;;;15.10;99.90;;;;;;5031703;28;20449;-80
2023/05/09 01:58:09;;;;;;;0.50;0.33;;;15.10;99.90;;;;;;5038211;28;20972;-79
2023/05/09 02:00:37;;;;;;;4.97;1.33;;;15.10;99.90;;;;;;5041120;28;20539;-79
2023/05/09 02:03:06;;;;;;;0.50;0.30;;;15.20;99.90;;;;;;5039562;28;20456;-80
2023/05/09 02:05:34;;;;;;;0.50;0.40;;;15.20;99.90;;;;;;5041475;28;20469;-80
2023/05/09 02:08:01;;;;;;;1.37;0.60;;;15.10;99.90;;;;;;5043315;28;20465;-80
2023/05/09 02:10:28;;;;;;;0.93;0.93;;;15.20;99.90;;;;;;5042843;28;20471;-80
2023/05/09 02:12:56;;;;;;;0.50;0.40;;;15.20;99.90;;;;;;5046920;28;20438;-80
2023/05/09 02:15:24;;;;;;;0.50;0.30;;;15.30;99.90;;;;;;5039946;28;20442;-78
2023/05/09 02:17:51;;;;;;;3.27;2.97;;;15.20;99.90;;;;;;5043122;28;20472;-78
2023/05/09 02:20:20;;;;;;;6.13;4.90;;;15.30;99.90;;;;;;5043244;28;21023;-80
2023/05/09 02:22:47;;;;;;;2.77;2.50;;;15.30;99.90;;;;;;5032154;28;20438;-80
2023/05/09 02:25:15;;;;;;;1.87;1.60;;;15.30;99.90;;;;;;5039084;28;20477;-80
2023/05/09 02:27:43;;;;;;;2.10;1.80;;;15.30;99.90;;;;;;5042989;28;20464;-80
2023/05/09 02:30:15;;;;;;;3.13;2.93;;;15.30;99.90;;;;;;5043271;28;20448;-80
2023/05/09 02:32:45;;;;;;;3.67;3.47;;;15.30;99.90;;;;;;5040306;28;20449;-78
2023/05/09 02:35:12;;;;;;;2.93;2.83;;;15.30;99.90;;;;;;5047553;28;20491;-80
2023/05/09 02:37:41;;;;;;;1.20;1.13;;;15.40;99.90;;;;;;5042884;28;20462;-80
2023/05/09 02:40:09;;;;;;;1.33;1.23;;;15.30;99.90;;;;;;5043036;28;20532;-80
2023/05/09 02:42:36;;;;;;;4.93;2.70;;;15.30;99.90;;;;;;5040646;28;20449;-79
2023/05/09 02:45:03;;;;;;;0.50;0.50;;;15.40;99.90;;;;;;5043552;28;20536;-80
2023/05/09 02:47:30;;;;;;;0.57;0.57;;;15.40;99.90;;;;;;5044261;28;21006;-80
2023/05/09 02:49:57;;;;;;;0.90;0.40;;;15.40;99.90;;;;;;5046952;28;20445;-80
2023/05/09 02:52:25;;;;;;;0.60;0.60;;;15.40;99.90;;;;;;5046744;28;20540;-78
2023/05/09 02:54:53;;;;;;;1.67;1.57;;;15.40;99.90;;;;;;5046846;28;20451;-80
2023/05/09 02:57:20;;;;;;;0.50;0.40;;;15.50;99.90;;;;;;5047028;28;20443;-80
2023/05/09 02:59:46;;;;;;;1.10;1.00;;;15.40;99.90;;;;;;5046663;28;20494;-80
2023/05/09 03:02:13;;;;;;;2.43;2.33;;;15.50;99.90;;;;;;5046468;28;20540;-79
2023/05/09 03:04:40;;;;;;;0.97;0.97;;;15.50;99.90;;;;;;5044263;28;20447;-80
2023/05/09 03:07:07;;;;;;;7.70;7.10;;;15.50;99.90;;;;;;5041060;28;20984;-79
2023/05/09 03:09:34;;;;;;;3.03;1.23;;;15.50;99.90;;;;;;5044665;28;20555;-80
2023/05/09 03:12:03;;;;;;;0.50;0.40;;;15.50;99.90;;;;;;5043202;28;20473;-80
2023/05/09 03:14:30;;;;;;;1.57;1.47;;;15.50;99.90;;;;;;5043764;28;20453;-80
2023/05/09 03:16:57;;;;;;;4.50;4.20;;;15.50;99.90;;;;;;5046414;28;20472;-80
2023/05/09 03:19:24;;;;;;;0.70;0.70;;;15.50;99.90;;;;;;5046715;28;20844;-79
2023/05/09 03:21:51;;;;;;;0.50;0.40;;;15.50;99.90;;;;;;5034764;28;20470;-81
2023/05/09 03:24:17;;;;;;;3.50;3.30;;;15.60;99.90;;;;;;5042819;28;20441;-80
2023/05/09 03:26:44;;;;;;;0.60;0.60;;;15.60;99.90;;;;;;5042931;28;23586;-80
2023/05/09 03:29:12;;;;;;;0.50;0.40;;;15.60;99.90;;;;;;5043162;28;20556;-80
2023/05/09 03:31:39;;;;;;;0.50;0.50;;;15.60;99.90;;;;;;5044436;28;20480;-79
2023/05/09 03:34:11;;;;;;;1.53;1.00;;;15.60;99.90;;;;;;5046208;28;20449;-80
2023/05/09 03:36:38;;;;;;;0.80;0.80;;;15.60;99.90;;;;;;5043970;28;20445;-80
2023/05/09 03:39:05;;;;;;;0.50;0.40;;;15.60;99.90;;;;;;5042617;28;20476;-80
2023/05/09 03:41:32;;;;;;;14.93;3.07;;;15.50;99.90;;;;;;5034875;28;20945;-80
2023/05/09 03:43:58;;;;;;;0.77;0.77;;;15.60;99.90;;;;;;5041622;28;20493;-80
2023/05/09 03:46:27;;;;;;;0.50;0.30;;;15.60;99.90;;;;;;5042586;28;20478;-79
2023/05/09 03:48:53;;;;;;;1.80;1.70;;;15.50;99.90;;;;;;5043709;28;20495;-79
2023/05/09 03:51:20;;;;;;;0.70;0.67;;;15.50;99.90;;;;;;5043831;28;20438;-81
2023/05/09 03:53:47;;;;;;;4.10;1.93;;;15.50;99.90;;;;;;5046504;28;20884;-80
2023/05/09 03:56:15;;;;;;;0.60;0.60;;;15.50;99.90;;;;;;5046182;28;20443;-81
2023/05/09 03:58:41;;;;;;;0.50;0.40;;;15.50;99.90;;;;;;5044628;28;20562;-81
2023/05/09 04:01:08;;;;;;;0.50;0.40;;;15.60;99.90;;;;;;5043257;28;20446;-79
2023/05/09 04:03:37;;;;;;;0.50;0.40;;;15.60;99.90;;;;;;5045008;28;20545;-82
2023/05/09 04:06:04;;;;;;;0.60;0.60;;;15.60;99.90;;;;;;5047052;28;20477;-80
2023/05/09 04:08:31;;;;;;;2.77;2.67;;;15.60;99.90;;;;;;5046119;28;20461;-80
2023/05/09 04:10:58;;;;;;;2.00;1.90;;;15.60;99.90;;;;;;5043087;28;20809;-80
2023/05/09 04:13:25;;;;;;;0.50;0.30;;;15.60;99.90;;;;;;5043476;28;20448;-81
2023/05/09 04:15:52;;;;;;;2.83;2.73;;;15.60;99.90;;;;;;5046344;28;20432;-80
2023/05/09 04:18:18;;;;;;;0.93;0.73;;;15.70;99.90;;;;;;5046576;28;20473;-80
2023/05/09 04:20:47;;;;;;;2.83;2.63;;;15.70;99.90;;;;;;5046147;28;21083;-80
2023/05/09 04:23:13;;;;;;;1.63;1.13;;;15.70;99.90;;;;;;5046728;28;20528;-80
2023/05/09 04:25:41;;;;;;;0.50;0.30;;;15.60;99.90;;;;;;5044513;28;20446;-81
2023/05/09 04:28:08;;;;;;;0.83;0.83;;;15.70;99.90;;;;;;5042429;28;20544;-80
2023/05/09 04:30:35;;;;;;;0.50;0.50;;;15.60;99.90;;;;;;5043980;28;20446;-80
2023/05/09 04:33:02;;;;;;;1.37;1.03;;;15.40;99.90;;;;;;5046598;28;20917;-78
2023/05/09 04:35:28;;;;;;;3.33;3.13;;;15.50;99.90;;;;;;5046766;28;20868;-81
2023/05/09 04:37:57;;;;;;;1.33;1.30;;;15.50;99.90;;;;;;5035611;28;20468;-79
2023/05/09 04:40:24;;;;;;;2.13;2.03;;;15.50;99.90;;;;;;5043199;28;20450;-78
2023/05/09 04:42:50;;;;;;;0.50;0.30;;;15.50;99.90;;;;;;5046214;28;21147;-78
2023/05/09 04:45:17;;;;;;;0.60;0.50;;;15.60;99.90;;;;;;5047313;28;20940;-79
2023/05/09 04:47:44;;;;;;;0.90;0.87;;;15.60;99.90;;;;;;5037418;28;20485;-79
2023/05/09 04:50:12;;;;;;;3.20;3.03;;;15.60;99.90;;;;;;5047372;28;20485;-81
2023/05/09 04:52:38;;;;;;;3.27;1.77;;;15.60;99.90;;;;;;5045061;28;20448;-78
2023/05/09 04:55:07;;;;;;;0.50;0.40;;;15.50;99.90;;;;;;5043320;28;20496;-79
2023/05/09 04:57:34;;;;;;;1.00;0.70;;;15.60;99.90;;;;;;5043853;28;20504;-78
2023/05/09 05:00:01;;;;;;;1.33;1.23;;;15.50;99.90;;;;;;5046601;28;20533;-79
2023/05/09 05:02:28;;;;;;;5.43;2.40;;;15.50;99.90;;;;;;5046189;28;20447;-79
2023/05/09 05:04:55;;;;;;;2.30;2.10;;;15.50;99.90;;;;;;5042838;28;20445;-79
2023/05/09 05:07:21;;;;;;;2.43;2.23;;;15.60;99.90;;;;;;5042225;28;20476;-78
2023/05/09 05:09:48;;;;;;;3.33;0.70;;;15.60;99.90;;;;;;5045512;28;20536;-79
2023/05/09 05:12:16;;;;;;;0.50;0.50;;;15.60;99.90;;;;;;5045611;28;20531;-80
2023/05/09 05:14:43;;;;;;;0.50;0.40;;;15.60;99.90;;;;;;5034430;28;20473;-80
2023/05/09 05:17:10;;;;;;;2.60;2.33;;;15.60;99.90;;;;;;5045557;28;20441;-78
2023/05/09 05:19:37;;;;;;;0.50;0.40;;;15.60;99.90;;;;;;5045291;28;20475;-80
2023/05/09 05:22:04;;;;;;;1.00;0.90;;;15.70;99.90;;;;;;5041185;28;20445;-79
2023/05/09 05:24:31;;;;;;;2.13;2.03;;;15.60;99.90;;;;;;5045172;28;20970;-79
2023/05/09 05:26:57;;;;;;;15.00;3.57;;;15.70;99.90;;;;;;5033461;28;20888;-83
2023/05/09 05:29:26;;;;;;;2.20;2.00;;;15.70;99.90;;;;;;5042187;28;20548;-82
2023/05/09 05:31:52;;;;;;;0.50;0.37;;;15.70;99.90;;;;;;5044384;28;20471;-81
2023/05/09 05:34:19;;;;;;;0.70;0.70;;;15.80;99.90;;;;;;5045529;28;20940;-82
2023/05/09 05:36:46;;;;;;;0.73;0.73;;;15.80;99.90;;;;;;5043492;28;20524;-80
2023/05/09 05:39:13;;;;;;;0.50;0.30;;;15.90;99.90;;;;;;5042440;28;20520;-80
2023/05/09 05:41:40;;;;;;;1.07;1.07;;;16.00;99.90;;;;;;5042359;28;20890;-81
2023/05/09 05:44:06;;;;;;;3.80;3.30;;;16.00;99.90;;;;;;5045062;28;20527;-79
2023/05/09 05:46:35;;;;;;;1.43;1.33;;;16.10;99.90;;;;;;5044495;28;20508;-80
2023/05/09 05:49:01;;;;;;;0.60;0.40;;;16.10;99.90;;;;;;5040907;28;20475;-80
2023/05/09 05:51:28;;;;;;;0.57;0.37;;;16.10;99.90;;;;;;5041590;28;20446;-79
2023/05/09 05:53:55;;;;;;;0.50;0.30;;;16.20;99.90;;;;;;5044930;28;20816;-82
2023/05/09 05:56:22;;;;;;;15.63;1.90;;;16.20;99.90;;;;;;5046884;28;20447;-80
2023/05/09 05:58:49;;;;;;;2.03;1.40;;;16.20;99.90;;;;;;5037072;28;20465;-82
2023/05/09 06:01:16;;;;;;;3.63;3.43;;;16.30;99.90;;;;;;5053287;28;20456;-82
2023/05/09 06:03:44;;;;;;;14.50;2.90;;;16.30;99.90;;;;;;5035611;28;20922;-83
2023/05/09 06:06:11;;;;;;;0.50;0.40;;;16.30;99.90;;;;;;5034478;28;20442;-81
2023/05/09 06:08:38;;;;;;;1.03;1.03;;;16.50;99.90;;;;;;5049941;28;20522;-82
2023/05/09 06:11:04;;;;;;;0.50;0.40;;;16.60;99.90;;;;;;5033538;28;20537;-82
2023/05/09 06:13:31;;;;;;;1.40;1.30;;;16.70;99.90;;;;;;5033665;28;21017;-83
2023/05/09 06:15:58;;;;;;;4.97;4.50;;;16.80;99.90;;;;;;5045000;28;20448;-83
2023/05/09 06:18:25;;;;;;;0.50;0.30;;;16.90;99.90;;;;;;5041187;28;20457;-82
2023/05/09 06:20:53;;;;;;;0.97;0.77;;;17.20;99.90;;;;;;5049865;28;21012;-83
2023/05/09 06:23:21;;;;;;;1.63;1.17;;;17.80;99.90;;;;;;5051509;28;20536;-84
2023/05/09 06:25:48;;;;;;;0.60;0.53;;;18.50;99.90;;;;;;5058358;28;21144;-83
2023/05/09 06:28:15;;;;;;;2.20;2.10;;;18.90;99.90;;;;;;5045450;28;20480;-82
2023/05/09 06:30:42;;;;;;;6.23;5.60;;;19.10;99.90;;;;;;5058807;28;20548;-82
2023/05/09 06:33:08;;;;;;;0.50;0.40;;;19.00;99.90;;;;;;5048411;28;20481;-82
2023/05/09 06:35:35;;;;;;;0.60;0.40;;;18.80;99.90;;;;;;5056237;28;20448;-82
2023/05/09 06:38:03;;;;;;;0.50;0.30;;;18.90;99.90;;;;;;5039292;28;21060;-82
2023/05/09 06:40:30;;;;;;;0.50;0.40;;;19.00;99.90;;;;;;5047953;28;20712;-82
2023/05/09 06:42:57;;;;;;;1.10;0.93;;;19.10;99.90;;;;;;5050609;28;20451;-82
2023/05/09 06:45:24;;;;;;;1.17;0.90;;;19.00;99.90;;;;;;5050735;28;20441;-82
2023/05/09 06:47:51;;;;;;;0.60;0.60;;;18.90;99.90;;;;;;5050063;28;20563;-82
2023/05/09 06:50:18;;;;;;;0.97;0.93;;;18.90;99.90;;;;;;5047226;28;20441;-79
2023/05/09 06:52:45;;;;;;;0.50;0.30;;;18.80;99.90;;;;;;5048027;28;20903;-82
2023/05/09 06:55:13;;;;;;;0.60;0.57;;;18.80;99.90;;;;;;5050701;28;20829;-83
2023/05/09 06:57:40;;;;;;;0.50;0.30;;;18.90;99.90;;;;;;5049877;28;20876;-82
2023/05/09 07:00:08;;;;;;;0.60;0.50;;;18.90;99.90;;;;;;5048097;28;20479;-81
2023/05/09 07:02:35;;;;;;;0.50;0.30;;;19.00;99.90;;;;;;5047958;28;20446;-81
2023/05/09 07:05:02;;;;;;;1.20;1.10;;;19.00;99.90;;;;;;5050679;28;20445;-81
2023/05/09 07:07:28;;;;;;;1.07;0.77;;;19.00;99.90;;;;;;5052810;28;20486;-81
2023/05/09 07:09:55;;;;;;;0.70;0.70;;;19.00;99.90;;;;;;5048258;28;20783;-81
2023/05/09 07:12:23;;;;;;;4.73;1.13;;;19.10;99.90;;;;;;5045628;28;20441;-80
2023/05/09 07:14:50;;;;;;;0.50;0.30;;;19.40;99.90;;;;;;5043815;28;20521;-80
2023/05/09 07:17:17;;;;;;;0.70;0.70;;;19.50;99.90;;;;;;5044685;28;20441;-82
2023/05/09 07:19:44;;;;;;;0.80;0.63;;;19.60;99.90;;;;;;5051250;28;20512;-81
2023/05/09 07:22:12;;;;;;;0.60;0.50;;;19.50;99.90;;;;;;5045253;28;20445;-80
2023/05/09 07:24:39;;;;;;;0.60;0.60;;;19.50;99.90;;;;;;5060078;28;20445;-81
2023/05/09 07:27:05;;;;;;;0.50;0.40;;;19.50;99.90;;;;;;5040622;28;20474;-82
2023/05/09 07:29:34;;;;;;;0.93;0.83;;;19.70;99.90;;;;;;5054364;28;20456;-82
2023/05/09 07:32:00;;;;;;;0.63;0.63;;;20.30;99.90;;;;;;5048261;28;20445;-80
2023/05/09 07:34:27;;;;;;;2.00;1.90;;;20.60;99.90;;;;;;5048672;28;20441;-83
2023/05/09 07:36:54;;;;;;;3.23;2.93;;;20.50;99.90;;;;;;5047858;28;20438;-81
2023/05/09 07:39:21;;;;;;;4.37;1.53;;;20.60;99.90;;;;;;5048613;28;20464;-80
2023/05/09 07:41:48;;;;;;;0.50;0.30;;;20.40;99.90;;;;;;5047851;28;20449;-82
2023/05/09 07:44:15;;;;;;;4.23;1.80;;;20.30;99.90;;;;;;5042927;28;20506;-81
2023/05/09 07:46:43;;;;;;;1.23;1.13;;;20.40;99.90;;;;;;5058795;28;20447;-79
2023/05/09 07:49:10;;;;;;;0.70;0.70;;;20.90;99.90;;;;;;5050784;28;20475;-81
2023/05/09 07:51:36;;;;;;;0.60;0.50;;;21.30;99.90;;;;;;5050590;28;20445;-82
2023/05/09 07:54:03;;;;;;;0.60;0.60;;;21.60;99.90;;;;;;5046544;28;20438;-79
2023/05/09 07:56:30;;;;;;;1.43;1.33;;;21.70;99.90;;;;;;5044461;28;20472;-81
2023/05/09 07:58:57;;;;;;;0.83;0.83;;;21.70;99.90;;;;;;5038455;28;20549;-84
2023/05/09 08:01:24;;;;;;;1.83;1.37;;;21.30;99.90;;;;;;5047798;28;20804;-81
2023/05/09 08:03:52;;;;;;;2.43;2.23;;;20.80;99.90;;;;;;5039168;28;20537;-81
2023/05/09 08:06:19;;;;;;;2.60;1.30;;;20.70;99.90;;;;;;5047836;28;20440;-81
2023/05/09 08:08:46;;;;;;;0.93;0.83;;;20.40;99.90;;;;;;5046494;28;20501;-82
2023/05/09 08:11:12;;;;;;;1.73;1.63;;;20.10;99.90;;;;;;5040597;28;20524;-81
2023/05/09 08:13:39;;;;;;;3.53;1.27;;;19.80;99.90;;;;;;5039653;28;20447;-82
2023/05/09 08:16:06;;;;;;;1.10;1.00;;;19.80;99.90;;;;;;5055816;28;20954;-81
2023/05/09 08:18:33;;;;;;;1.77;1.67;;;20.10;99.90;;;;;;5055229;28;20463;-80
2023/05/09 08:21:01;;;;;;;0.90;0.47;;;21.00;99.90;;;;;;5044617;28;20528;-83
2023/05/09 08:23:29;;;;;;;0.80;0.77;;;21.90;99.90;;;;;;5035472;28;20471;-83
2023/05/09 08:25:57;;;;;;;0.93;0.83;;;23.30;99.90;;;;;;5043454;28;20443;-81
2023/05/09 08:28:27;;;;;;;1.80;1.30;;;23.80;99.90;;;;;;5043667;28;20531;-81
2023/05/09 08:30:54;;;;;;;2.60;2.17;;;24.90;99.90;;;;;;5036669;28;20459;-83
2023/05/09 08:33:21;;;;;;;0.80;0.80;;;26.00;99.90;;;;;;5041790;28;20461;-81
2023/05/09 08:35:51;;;;;;;1.90;1.80;;;26.80;99.90;;;;;;5043200;28;20445;-81
2023/05/09 08:38:19;;;;;;;1.40;1.10;;;27.50;99.90;;;;;;5043827;28;20540;-81
2023/05/09 08:40:46;;;;;;;1.90;1.70;;;27.60;99.10;;;;;;5042983;28;20442;-81
2023/05/09 08:43:17;;;;;;;0.50;0.30;;;26.60;98.70;;;;;;5040245;28;20443;-83
2023/05/09 08:45:50;;;;;;;0.60;0.40;;;26.60;99.90;;;;;;5039049;28;20458;-82
2023/05/09 08:48:18;;;;;;;0.70;0.70;;;26.70;99.90;;;;;;5050281;28;20559;-79
2023/05/09 08:50:45;;;;;;;0.80;0.80;;;26.60;98.90;;;;;;5048176;28;20699;-79
2023/05/09 08:53:12;;;;;;;0.63;0.57;;;25.90;99.90;;;;;;5053573;28;20437;-81
2023/05/09 08:55:41;;;;;;;1.23;1.13;;;25.30;99.90;;;;;;5047718;28;20528;-80
2023/05/09 08:58:08;;;;;;;0.60;0.57;;;25.00;99.90;;;;;;5055623;28;20453;-80
2023/05/09 09:00:37;;;;;;;3.80;2.80;;;24.90;99.90;;;;;;5056050;28;20451;-81
2023/05/09 09:03:07;;;;;;;1.33;1.23;;;25.10;99.90;;;;;;5044015;28;20496;-82
2023/05/09 09:05:36;;;;;;;2.30;2.10;;;24.70;99.90;;;;;;5043144;28;20465;-81
2023/05/09 09:08:06;;;;;;;2.23;1.90;;;25.50;99.90;;;;;;5032549;28;20561;-77
2023/05/09 09:10:34;;;;;;;0.57;0.53;;;26.20;99.90;;;;;;5034762;28;20828;-81
2023/05/09 09:13:04;;;;;;;0.50;0.50;;;26.20;99.90;;;;;;5034331;28;20525;-82
2023/05/09 09:15:35;;;;;;;2.30;1.80;;;26.70;99.90;;;;;;5040326;28;20449;-82
2023/05/09 09:18:08;;;;;;;5.20;0.80;;;28.10;97.40;;;;;;5043418;28;20460;-81
2023/05/09 09:20:37;;;;;;;2.87;1.50;;;28.40;92.00;;;;;;5043098;28;20437;-81
2023/05/09 09:23:09;;;;;;;0.50;0.40;;;28.50;89.50;;;;;;5044643;28;20469;-81
2023/05/09 09:25:36;;;;;;;2.00;1.83;;;28.90;88.80;;;;;;5046618;28;20445;-81
2023/05/09 09:28:05;;;;;;;1.27;0.60;;;27.80;90.20;;;;;;5044073;28;20487;-80
2023/05/09 09:30:31;;;;;;;0.50;0.40;;;27.20;91.50;;;;;;5043161;28;20525;-81
2023/05/09 09:32:59;;;;;;;0.60;0.50;;;27.30;90.90;;;;;;5045164;28;20450;-81
2023/05/09 09:35:26;;;;;;;1.17;0.80;;;27.00;91.40;;;;;;5046960;28;20881;-82
2023/05/09 09:37:58;;;;;;;1.40;1.30;;;26.90;91.30;;;;;;5044733;28;20453;-81
2023/05/09 09:40:25;;;;;;;0.50;0.50;;;26.60;91.80;;;;;;5038851;28;20444;-82
2023/05/09 09:42:52;;;;;;;0.50;0.30;;;26.40;93.20;;;;;;5044998;28;20441;-82
2023/05/09 09:45:21;;;;;;;0.50;0.40;;;26.50;92.80;;;;;;5042415;28;20446;-81
2023/05/09 09:47:49;;;;;;;0.50;0.40;;;26.00;92.60;;;;;;5042019;28;20482;-79
2023/05/09 09:50:17;;;;;;;0.60;0.43;;;25.70;93.60;;;;;;5045806;28;20437;-81
2023/05/09 09:52:49;;;;;;;0.90;0.73;;;25.00;95.30;;;;;;5045143;28;20932;-81
2023/05/09 09:55:16;;;;;;;2.53;0.93;;;24.40;99.90;;;;;;5035077;28;20444;-81
2023/05/09 09:57:44;;;;;;;0.97;0.97;;;24.10;99.90;;;;;;5043017;28;20456;-81
2023/05/09 10:00:12;;;;;;;0.60;0.60;;;23.90;99.90;;;;;;5045285;28;20471;-81
2023/05/09 10:02:49;;;;;;;0.80;0.67;;;24.10;99.90;;;;;;5045098;28;20433;-79
2023/05/09 10:05:20;;;;;;;1.20;0.70;;;24.20;99.90;;;;;;5033171;28;20438;-79
2023/05/09 10:07:51;;;;;;;1.73;0.87;;;24.00;99.90;;;;;;5041330;28;20489;-80
2023/05/09 10:10:18;;;;;;;2.00;1.53;;;23.80;99.90;;;;;;5041532;28;20810;-77
2023/05/09 10:12:45;;;;;;;1.23;1.13;;;23.70;99.90;;;;;;5042343;28;20453;-79
2023/05/09 10:15:14;;;;;;;1.27;1.13;;;23.40;99.90;;;;;;5045070;28;20816;-80
2023/05/09 10:17:41;;;;;;;0.60;0.60;;;23.30;99.90;;;;;;5045678;28;20540;-81
2023/05/09 10:20:12;;;;;;;0.50;0.40;;;22.90;99.90;;;;;;5044151;28;20612;-79
2023/05/09 10:22:40;;;;;;;0.67;0.67;;;22.70;99.90;;;;;;5043275;28;20437;-80
2023/05/09 10:25:12;;;;;;;0.50;0.40;;;22.60;99.90;;;;;;5050470;28;20871;-81
2023/05/09 10:27:44;;;;;;;0.97;0.97;;;22.40;99.90;;;;;;5049819;28;20472;-80
2023/05/09 10:30:17;;;;;;;0.50;0.30;;;22.40;99.90;;;;;;5046669;28;20440;-81
2023/05/09 10:32:51;;;;;;;1.10;1.00;;;22.40;99.90;;;;;;5046686;28;20449;-80
2023/05/09 10:35:22;;;;;;;0.50;0.40;;;22.60;99.90;;;;;;5034869;28;20452;-80
2023/05/09 10:37:49;;;;;;;0.50;0.30;;;22.70;99.90;;;;;;5042951;28;20476;-81
2023/05/09 10:40:19;;;;;;;0.50;0.30;;;22.70;99.90;;;;;;5029430;28;20441;-80
2023/05/09 10:42:47;;;;;;;0.60;0.53;;;22.80;99.90;;;;;;5045507;28;20531;-81
2023/05/09 10:45:14;;;;;;;0.60;0.57;;;22.80;99.90;;;;;;5042529;28;20445;-79
2023/05/09 10:47:43;;;;;;;0.50;0.30;;;22.90;99.90;;;;;;5041008;28;20476;-80
2023/05/09 10:50:12;;;;;;;0.60;0.50;;;23.00;99.90;;;;;;5051197;28;20452;-80
2023/05/09 10:53:17;;;;;;;0.60;0.50;;;23.00;99.90;;;;;;5042065;28;20937;-81
2023/05/09 10:55:52;;;;;;;0.50;0.30;;;23.10;99.90;;;;;;5041753;28;20973;-81
2023/05/09 10:58:26;;;;;;;0.50;0.30;;;23.40;99.90;;;;;;5037375;28;20453;-80
2023/05/09 11:00:54;;;;;;;1.50;1.40;;;23.30;99.90;;;;;;5044403;28;20496;-79
2023/05/09 11:03:22;;;;;;;0.73;0.73;;;23.20;99.90;;;;;;5053868;28;20484;-81
2023/05/09 11:05:52;;;;;;;1.07;0.73;;;22.90;99.90;;;;;;5048757;28;20480;-79
2023/05/09 11:08:22;;;;;;;0.50;0.40;;;22.90;99.90;;;;;;5037135;28;20477;-80
2023/05/09 11:10:49;;;;;;;1.00;1.00;;;22.90;99.90;;;;;;5053427;28;20451;-81
2023/05/09 11:13:20;;;;;;;0.50;0.30;;;23.00;99.90;;;;;;5036630;28;20816;-80
2023/05/09 11:16:09;;;;;;;0.50;0.40;;;23.20;99.90;;;;;;5045783;28;20474;-80
2023/05/09 11:18:50;;;;;;;0.67;0.63;;;23.20;99.90;;;;;;5051299;28;20457;-80
2023/05/09 11:21:19;;;;;;;2.87;1.20;;;23.40;99.90;;;;;;5048572;28;20488;-80
2023/05/09 11:23:48;;;;;;;0.50;0.30;;;23.50;99.90;;;;;;5041906;28;20442;-80
2023/05/09 11:26:16;;;;;;;1.33;1.03;;;23.50;99.90;;;;;;5053250;28;20536;-79
2023/05/09 11:28:53;;;;;;;0.50;0.37;;;23.70;99.90;;;;;;5051787;28;20531;-79
2023/05/09 11:31:20;;;;;;;0.50;0.40;;;23.70;99.90;;;;;;5028282;28;20580;-81
2023/05/09 11:33:53;;;;;;;0.83;0.83;;;23.80;99.90;;;;;;5052319;28;20505;-80
2023/05/09 11:36:28;;;;;;;0.50;0.40;;;23.70;99.90;;;;;;5037207;28;20458;-81
2023/05/09 11:39:05;;;;;;;0.50;0.30;;;23.70;99.90;;;;;;5052577;28;20556;-78
2023/05/09 11:41:41;;;;;;;0.50;0.40;;;23.80;99.90;;;;;;5048245;28;20433;-80
2023/05/09 11:44:15;;;;;;;0.50;0.30;;;24.00;99.90;;;;;;5055975;28;20441;-79
2023/05/09 11:46:42;;;;;;;0.70;0.50;;;24.10;99.90;;;;;;5056393;28;20447;-79
2023/05/09 11:49:09;;;;;;;0.50;0.30;;;23.90;99.90;;;;;;5037117;28;20482;-80
2023/05/09 11:51:37;;;;;;;0.70;0.70;;;23.40;99.90;;;;;;5044731;28;20438;-81
2023/05/09 11:54:06;;;;;;;0.50;0.30;;;23.40;99.90;;;;;;5037371;28;20442;-81
2023/05/09 11:56:34;;;;;;;0.50;0.40;;;23.20;99.90;;;;;;5047219;28;20472;-82
2023/05/09 11:59:01;;;;;;;1.00;0.90;;;23.20;99.90;;;;;;5039716;28;20571;-79
2023/05/09 12:01:29;;;;;;;0.50;0.40;;;23.20;99.90;;;;;;5047786;28;20468;-79
2023/05/09 12:03:57;;;;;;;1.27;0.60;;;23.20;99.90;;;;;;5056041;28;20509;-78
2023/05/09 12:06:24;;;;;;;0.60;0.60;;;23.30;99.90;;;;;;5048213;28;20437;-81
2023/05/09 12:08:51;;;;;;;0.50;0.40;;;23.30;99.90;;;;;;5047641;28;20888;-81
2023/05/09 12:11:20;;;;;;;1.07;0.97;;;23.10;99.90;;;;;;5043763;28;20508;-81
2023/05/09 12:13:48;;;;;;;0.50;0.40;;;23.00;99.90;;;;;;5051333;28;20452;-80
2023/05/09 12:16:16;;;;;;;2.83;1.50;;;23.10;99.90;;;;;;5043834;28;20481;-80
2023/05/09 12:18:47;;;;;;;0.50;0.30;;;23.10;99.90;;;;;;5042093;28;21043;-80
2023/05/09 12:21:14;;;;;;;0.50;0.40;;;23.30;99.90;;;;;;5037074;28;20442;-81
2023/05/09 12:23:41;;;;;;;0.60;0.60;;;23.30;99.90;;;;;;5042261;28;20448;-81
2023/05/09 12:26:08;;;;;;;0.60;0.50;;;23.20;99.90;;;;;;5055504;28;20532;-80
2023/05/09 12:28:36;;;;;;;0.50;0.30;;;23.10;99.90;;;;;;5050037;28;20497;-81
2023/05/09 12:31:04;;;;;;;0.50;0.30;;;23.10;99.90;;;;;;5045035;28;20480;-81
2023/05/09 12:33:31;;;;;;;0.50;0.30;;;23.10;99.90;;;;;;5055703;28;20513;-81
2023/05/09 12:36:03;;;;;;;0.50;0.40;;;23.30;99.90;;;;;;5055119;28;20464;-79
2023/05/09 12:38:30;;;;;;;0.93;0.93;;;23.20;99.90;;;;;;5043678;28;20572;-80
2023/05/09 12:41:04;;;;;;;1.63;0.93;;;23.00;99.90;;;;;;5052374;28;20820;-80
2023/05/09 12:43:32;;;;;;;1.23;1.13;;;23.00;99.90;;;;;;5037086;28;20457;-79
2023/05/09 12:46:01;;;;;;;0.60;0.50;;;23.30;99.90;;;;;;5051692;28;20810;-79
2023/05/09 12:48:29;;;;;;;0.50;0.40;;;23.40;99.90;;;;;;5047854;28;20492;-79
2023/05/09 12:50:56;;;;;;;0.50;0.30;;;23.40;99.90;;;;;;5054560;28;20483;-80